Time;durP1;ratioP1;P1;durP2;ratioP2;P2;SDS_P1;SDS_P2;PMS_P1;PMS_P2;Temp;Humidity;BMP_temperature;BMP_pressure;BME280_temperature;BME280_humidity;BME280_pressure;Samples;Min_cycle;Max_cycle;Signal;HPM_P1;HPM_P2
2021/09/01 00:02:36;;;;;;;2.40;1.90;;;;;;;15.20;80.50;99748.83;111633;1214;108658;-77
2021/09/01 00:07:10;;;;;;;2.70;1.70;;;;;;;15.20;80.36;99752.35;111033;1217;136827;-77
2021/09/01 00:11:16;;;;;;;4.40;1.70;;;;;;;15.19;80.34;99751.67;110449;1228;137685;-75
2021/09/01 00:15:23;;;;;;;2.60;2.20;;;;;;;15.18;80.56;99747.06;110151;1232;93998;-76
2021/09/01 00:23:35;;;;;;;2.30;1.80;;;;;;;15.10;80.69;99759.90;109847;1227;137422;-76
2021/09/01 00:31:49;;;;;;;2.40;2.10;;;;;;;15.07;80.76;99754.84;112111;1213;93992;-76
2021/09/01 00:35:58;;;;;;;2.20;2.00;;;;;;;15.03;80.86;99758.00;111878;1209;137010;-76
2021/09/01 00:44:16;;;;;;;2.10;1.90;;;;;;;15.05;81.00;99770.16;111922;1213;107327;-77
2021/09/01 01:09:49;;;;;;;1.70;1.50;;;;;;;14.89;81.44;99787.56;110832;1222;109774;-76
2021/09/01 01:13:27;;;;;;;;;;;;;;;;;;;;;
2021/09/01 01:34:15;;;;;;;;;;;;;;;;;;;;;
2021/09/01 01:46:35;;;;;;;2.20;1.50;;;;;;;14.89;81.99;99798.42;111226;1221;657318;-75
2021/09/01 01:50:20;;;;;;;3.20;1.60;;;;;;;14.84;82.00;99801.70;112199;1201;137221;-76
2021/09/01 01:54:28;;;;;;;2.00;1.80;;;;;;;14.79;81.93;99806.50;112190;1206;93870;-75
2021/09/01 01:58:38;;;;;;;1.80;1.60;;;;;;;14.77;82.06;99802.78;112021;1216;108367;-76
2021/09/01 02:02:46;;;;;;;2.70;2.00;;;;;;;14.75;82.02;99808.52;111709;1216;137375;-76
2021/09/01 02:07:35;;;;;;;3.90;1.60;;;;;;;14.73;82.03;99805.46;111031;1221;109875;-76
2021/09/01 02:24:00;;;;;;;1.60;1.50;;;;;;;14.60;82.24;99815.14;110493;1228;106166;-76
2021/09/01 02:28:05;;;;;;;4.10;1.70;;;;;;;14.60;82.62;99814.24;110382;1223;137583;-76
2021/09/01 02:40:01;;;;;;;2.60;1.40;;;;;;;14.60;82.68;99828.26;110394;1223;137586;-76
2021/09/01 02:52:44;;;;;;;1.40;1.30;;;;;;;14.52;82.67;99832.00;110058;1230;137813;-76
2021/09/01 02:56:50;;;;;;;1.40;1.30;;;;;;;14.50;82.88;99837.02;110442;1223;94846;-76
2021/09/01 03:00:55;;;;;;;2.70;1.50;;;;;;;14.47;83.08;99839.42;109974;1227;136758;-75
2021/09/01 03:13:15;;;;;;;2.30;2.00;;;;;;;14.46;83.16;99847.89;112107;1212;93871;-76
2021/09/01 03:17:23;;;;;;;2.60;2.30;;;;;;;14.42;83.09;99850.71;111895;1209;136629;-76
2021/09/01 03:30:27;;;;;;;3.20;1.90;;;;;;;14.48;83.08;99861.23;110729;1224;137027;-76
2021/09/01 03:45:58;;;;;;;2.50;1.90;;;;;;;14.47;83.03;99879.53;111490;1219;635759;-76
2021/09/01 03:50:08;;;;;;;3.20;2.50;;;;;;;14.43;82.99;99887.23;112105;1209;136112;-76
2021/09/01 03:58:24;;;;;;;2.90;2.20;;;;;;;14.33;83.13;99891.40;111882;1219;108287;-75
2021/09/01 04:02:43;;;;;;;;;;;;;;;;;;;;;
2021/09/01 04:10:28;;;;;;;;;;;;;;;;;;;;;
2021/09/01 04:23:12;;;;;;;3.90;2.60;;;;;;;14.33;83.17;99920.46;109618;1232;107104;-77
2021/09/01 04:26:45;;;;;;;;;;;;;;;;;;;;;
2021/09/01 04:31:10;;;;;;;;;;;;;;;;;;;;;
2021/09/01 04:35:29;;;;;;;4.60;3.60;;;;;;;14.26;83.46;99932.70;109511;1232;94874;-76
2021/09/01 04:47:10;;;;;;;6.60;4.90;;;;;;;14.27;83.31;99942.43;112232;1204;94025;-74
2021/09/01 04:51:43;;;;;;;8.00;5.60;;;;;;;14.27;83.45;99952.96;112187;1203;137196;-76
2021/09/01 04:55:08;;;;;;;7.30;5.40;;;;;;;14.27;83.41;99961.20;112152;1203;137192;-76
2021/09/01 04:58:57;;;;;;;6.90;5.50;;;;;;;14.28;83.49;99957.08;112303;1202;106195;-76
2021/09/01 05:03:32;;;;;;;8.40;6.20;;;;;;;14.29;83.33;99959.29;112033;1205;136659;-76
2021/09/01 05:07:23;;;;;;;8.00;6.30;;;;;;;14.28;83.33;99963.73;111978;1209;137038;-76
2021/09/01 05:11:08;;;;;;;9.70;7.50;;;;;;;14.26;83.39;99965.58;112088;1209;93920;-75
2021/09/01 05:15:27;;;;;;;;;;;;;;;;;;;;;
2021/09/01 05:19:11;;;;;;;9.00;6.70;;;;;;;14.26;83.46;99967.90;111404;1220;636732;-77
2021/09/01 05:23:18;;;;;;;8.10;6.60;;;;;;;14.28;83.41;99971.27;112204;1205;93871;-77
2021/09/01 05:27:52;;;;;;;8.60;6.80;;;;;;;14.31;83.25;99973.55;112086;1206;136311;-76
2021/09/01 05:31:36;;;;;;;11.20;7.80;;;;;;;14.33;83.25;99972.20;112084;1205;136938;-76
2021/09/01 05:35:24;;;;;;;8.20;6.00;;;;;;;14.35;83.18;99979.77;112074;1208;106356;-76
2021/09/01 05:39:34;;;;;;;10.90;7.00;;;;;;;14.36;83.04;99979.95;111831;1210;136655;-76
2021/09/01 05:43:23;;;;;;;8.50;7.00;;;;;;;14.36;83.19;99986.06;112153;1203;136947;-77
2021/09/01 05:47:38;;;;;;;10.60;7.20;;;;;;;14.36;83.15;99988.34;112136;1212;94182;-77
2021/09/01 05:51:20;;;;;;;;;;;;;;;;;;;;;
2021/09/01 06:04:19;;;;;;;12.70;7.70;;;;;;;14.46;83.15;100012.64;111229;1223;636542;-77
2021/09/01 06:08:02;;;;;;;;;;;;;;;;;;;;;
2021/09/01 06:12:11;;;;;;;11.40;7.70;;;;;;;14.56;83.00;100015.16;112175;1205;93904;-76
2021/09/01 06:16:19;;;;;;;10.90;7.30;;;;;;;14.67;82.59;100018.58;112172;1206;136592;-76
2021/09/01 06:20:28;;;;;;;11.60;7.30;;;;;;;14.76;82.26;100020.02;112034;1214;137009;-76
2021/09/01 06:24:37;;;;;;;11.50;7.20;;;;;;;14.91;82.12;100024.65;111996;1212;108868;-76
2021/09/01 06:37:39;;;;;;;;;;;;;;;;;;;;;
2021/09/01 06:41:42;;;;;;;10.50;7.00;;;;;;;14.99;81.40;100045.73;111088;1222;108118;-77
2021/09/01 06:49:53;;;;;;;9.50;7.20;;;;;;;15.18;80.98;100045.81;110634;1224;94897;-76
2021/09/01 06:53:26;;;;;;;;;;;;;;;;;;;;;
2021/09/01 07:05:24;;;;;;;;;;;;;;;;;;;;;
2021/09/01 07:09:13;;;;;;;14.80;10.50;;;;;;;20.56;70.92;100052.52;111444;1215;635586;-76
2021/09/01 07:17:31;;;;;;;10.20;6.50;;;;;;;19.43;69.14;100073.58;111830;1212;136602;-76
2021/09/01 07:21:31;;;;;;;8.00;6.40;;;;;;;18.87;70.08;100078.21;111921;1213;107011;-76
2021/09/01 07:25:33;;;;;;;;;;;;;;;;;;;;;
2021/09/01 07:34:27;;;;;;;9.20;6.90;;;;;;;19.45;69.65;100087.00;110456;1224;93883;-75
2021/09/01 07:38:16;;;;;;;8.50;5.40;;;;;;;20.27;68.83;100092.11;110170;1225;93943;-76
2021/09/01 07:48:25;;;;;;;6.90;5.10;;;;;;;24.95;59.64;100080.66;110012;1226;136800;-76
2021/09/01 07:51:26;;;;;;;10.10;5.40;;;;;;;24.66;58.15;100085.83;110369;1230;94855;-76
2021/09/01 07:55:02;;;;;;;8.40;5.00;;;;;;;24.61;57.73;100083.33;110740;1225;136717;-76
2021/09/01 07:58:32;;;;;;;5.60;4.10;;;;;;;25.01;56.71;100091.63;110963;1220;137013;-76
2021/09/01 08:01:28;;;;;;;5.70;4.60;;;;;;;25.77;56.21;100082.16;111347;1219;108790;-76
2021/09/01 08:05:13;;;;;;;;;;;;;;;;;;;;;
2021/09/01 08:08:54;;;;;;;;;;;;;;;;;;;;;
2021/09/01 08:12:47;;;;;;;;;;;;;;;;;;;;;
2021/09/01 08:16:07;;;;;;;11.00;8.10;;;;;;;27.39;47.84;100089.90;112318;1203;109410;-76
2021/09/01 08:20:06;;;;;;;5.20;4.50;;;;;;;26.55;48.30;100090.72;112288;1209;104510;-77
2021/09/01 08:23:56;;;;;;;5.90;4.20;;;;;;;25.13;47.90;100092.77;112094;1212;136846;-76
2021/09/01 08:27:31;;;;;;;;;;;;;;;;;;;;;
2021/09/01 08:35:45;;;;;;;6.70;4.50;;;;;;;22.67;51.54;100118.30;111520;1221;137137;-77
2021/09/01 08:39:31;;;;;;;7.70;4.80;;;;;;;21.56;52.37;100124.20;111266;1224;106322;-76
2021/09/01 08:47:05;;;;;;;;;;;;;;;;;;;;;
2021/09/01 08:50:33;;;;;;;7.60;4.70;;;;;;;19.52;56.29;100149.45;110812;1220;95165;-76
2021/09/01 08:54:54;;;;;;;6.60;4.80;;;;;;;19.19;57.33;100155.61;110650;1219;136712;-76
2021/09/01 09:06:38;;;;;;;6.90;4.30;;;;;;;21.94;56.31;100150.55;110651;1226;137354;-76
2021/09/01 09:09:29;;;;;;;5.90;4.70;;;;;;;24.05;54.27;100143.48;110768;1228;96190;-74
2021/09/01 09:12:41;;;;;;;6.00;4.60;;;;;;;24.70;48.44;100140.06;110687;1222;137003;-78
2021/09/01 09:15:26;;;;;;;6.60;4.60;;;;;;;24.72;49.49;100154.48;111486;1221;635686;-76
2021/09/01 09:18:52;;;;;;;5.30;4.40;;;;;;;25.32;48.96;100158.43;112239;1208;136680;-77
2021/09/01 09:22:04;;;;;;;5.90;3.90;;;;;;;26.48;47.16;100148.50;112282;1206;94286;-76
2021/09/01 09:25:33;;;;;;;;;;;;;;;;;;;;;
2021/09/01 09:28:31;;;;;;;8.10;5.00;;;;;;;28.47;43.69;100144.45;112348;1206;105711;-77
2021/09/01 09:32:03;;;;;;;6.80;4.90;;;;;;;28.97;41.58;100146.54;112262;1210;137307;-76
2021/09/01 09:34:58;;;;;;;6.80;4.60;;;;;;;28.41;42.17;100149.25;112605;1206;93911;-78
2021/09/01 09:38:05;;;;;;;5.50;4.20;;;;;;;27.91;41.92;100156.83;112604;1199;93989;-76
2021/09/01 09:40:53;;;;;;;8.20;4.90;;;;;;;26.90;41.80;100159.81;112717;1197;108002;-76
2021/09/01 09:44:24;;;;;;;9.10;5.50;;;;;;;26.39;42.62;100166.18;112526;1203;136620;-77
2021/09/01 09:51:55;;;;;;;8.10;4.20;;;;;;;26.65;43.19;100165.16;112338;1206;95014;-77
2021/09/01 09:54:47;;;;;;;6.30;4.70;;;;;;;27.11;42.74;100164.44;112211;1208;136831;-76
2021/09/01 09:58:06;;;;;;;;;;;;;;;;;;;;;
2021/09/01 10:01:15;;;;;;;5.20;3.50;;;;;;;27.51;42.10;100162.21;112215;1202;136775;-77
2021/09/01 10:04:43;;;;;;;5.60;3.70;;;;;;;27.70;41.33;100160.45;112317;1206;107448;-77
2021/09/01 10:08:11;;;;;;;4.90;3.60;;;;;;;26.91;40.11;100157.73;112159;1203;137025;-76
2021/09/01 10:11:35;;;;;;;5.00;3.60;;;;;;;25.99;41.56;100178.38;112386;1208;94858;-76
2021/09/01 10:14:43;;;;;;;4.00;3.50;;;;;;;25.75;42.53;100184.75;112334;1206;107128;-78
2021/09/01 10:18:14;;;;;;;;;;;;;;;26.16;43.38;100181.45;112349;1203;106920;-78
2021/09/01 10:21:06;;;;;;;3.70;3.10;;;;;;;26.74;43.61;100174.04;112223;1209;123123;-77
2021/09/01 10:24:31;;;;;;;7.30;6.10;;;;;;;27.03;41.76;100164.48;112353;1206;95022;-73
2021/09/01 10:27:52;;;;;;;4.80;3.40;;;;;;;26.67;40.43;100176.11;112746;1196;136376;-76
2021/09/01 10:31:44;;;;;;;5.70;3.90;;;;;;;26.72;41.41;100182.54;112645;1204;109411;-75
2021/09/01 10:35:40;;;;;;;5.00;3.80;;;;;;;27.39;40.68;100184.59;112497;1201;107296;-77
2021/09/01 10:39:29;;;;;;;;;;;;;;;;;;;;;
2021/09/01 10:43:17;;;;;;;7.60;3.90;;;;;;;26.57;40.63;100193.30;112556;1207;95033;-77
2021/09/01 10:47:33;;;;;;;5.60;3.40;;;;;;;25.61;40.23;100194.31;112471;1199;96168;-75
2021/09/01 10:51:18;;;;;;;;;;;;;;;;;;;;;
2021/09/01 10:59:20;;;;;;;6.80;4.80;;;;;;;25.76;43.20;100200.20;112215;1206;136926;-76
2021/09/01 11:02:57;;;;;;;4.00;2.90;;;;;;;25.98;41.96;100189.64;111953;1213;137174;-76
2021/09/01 11:07:02;;;;;;;;;;;;;;;;;;;;;
2021/09/01 11:11:01;;;;;;;;;;;;;;;;;;;;;
2021/09/01 11:15:28;;;;;;;6.10;3.30;;;;;;;24.65;42.87;100201.12;112016;1216;107220;-77
2021/09/01 11:23:34;;;;;;;4.70;2.60;;;;;;;24.88;43.04;100212.05;111535;1220;136941;-77
2021/09/01 11:27:26;;;;;;;4.30;2.70;;;;;;;24.11;42.78;100215.25;111433;1222;95347;-77
2021/09/01 11:31:23;;;;;;;;;;;;;;;;;;;;;
2021/09/01 11:34:27;;;;;;;3.10;2.60;;;;;;;23.44;45.49;100225.78;110926;1225;136896;-76
2021/09/01 11:42:36;;;;;;;;;;;;;;;;;;;;;
2021/09/01 11:50:46;;;;;;;3.50;2.10;;;;;;;24.32;43.32;100222.14;110309;1229;108461;-78
2021/09/01 11:58:37;;;;;;;5.90;3.30;;;;;;;23.76;42.96;100229.43;111582;1211;634244;-78
2021/09/01 12:02:17;;;;;;;3.70;1.60;;;;;;;23.47;42.36;100232.18;112242;1205;93980;-76
2021/09/01 12:06:00;;;;;;;;;;;;;;;;;;;;;
2021/09/01 12:10:01;;;;;;;2.30;1.80;;;;;;;23.34;42.57;100232.26;112223;1212;107029;-76
2021/09/01 12:13:55;;;;;;;2.60;1.50;;;;;;;23.52;43.28;100232.38;112274;1206;106200;-76
2021/09/01 12:18:02;;;;;;;2.40;1.50;;;;;;;23.85;43.52;100237.82;111976;1208;136846;-76
2021/09/01 12:21:58;;;;;;;;;;;;;;;;;;;;;
2021/09/01 12:26:05;;;;;;;;;;;;;;;;;;;;;
2021/09/01 12:30:07;;;;;;;2.80;1.60;;;;;;;23.27;43.88;100247.27;111847;1212;137049;-76
2021/09/01 12:33:53;;;;;;;;;;;;;;;;;;;;;
2021/09/01 12:42:10;;;;;;;;;;;;;;;;;;;;;
2021/09/01 12:46:16;;;;;;;;;;;;;;;;;;;;;
2021/09/01 12:54:21;;;;;;;;;;;;;;;;;;;;;
2021/09/01 12:58:28;;;;;;;3.70;1.70;;;;;;;22.01;46.43;100253.66;110137;1225;106980;-78
2021/09/01 13:10:36;;;;;;;4.10;1.90;;;;;;;22.29;46.46;100243.33;110160;1232;109112;-77
2021/09/01 13:15:07;;;;;;;3.90;1.50;;;;;;;22.34;46.23;100241.34;109827;1228;137228;-77
2021/09/01 13:18:41;;;;;;;;;;;;;;;;;;;;;
2021/09/01 13:22:57;;;;;;;2.20;1.60;;;;;;;22.59;46.34;100247.61;111467;1221;634793;-77
2021/09/01 13:26:47;;;;;;;;;;;;;;;;;;;;;
2021/09/01 13:31:08;;;;;;;5.70;3.90;;;;;;;22.67;46.38;100246.82;112312;1208;136668;-78
2021/09/01 13:34:46;;;;;;;;;;;;;;;;;;;;;
2021/09/01 13:37:53;;;;;;;3.70;1.50;;;;;;;22.40;46.27;100247.06;112092;1212;136562;-76
2021/09/01 13:41:23;;;;;;;;;;;;;;;;;;;;;
2021/09/01 13:53:18;;;;;;;2.50;1.40;;;;;;;22.04;47.30;100257.05;111408;1223;108925;-76
2021/09/01 13:57:04;;;;;;;;;;;;;;;;;;;;;
2021/09/01 14:09:00;;;;;;;;;;;;;;;;;;;;;
2021/09/01 14:17:40;;;;;;;4.70;2.30;;;;;;;21.23;47.93;100271.27;110698;1225;107960;-77
2021/09/01 14:21:01;;;;;;;4.20;1.60;;;;;;;20.95;47.90;100273.23;110522;1228;137042;-77
2021/09/01 14:24:50;;;;;;;;;;;;;;;;;;;;;
2021/09/01 14:31:42;;;;;;;3.50;1.60;;;;;;;20.57;49.63;100278.55;111296;1223;136722;-76
2021/09/01 14:35:07;;;;;;;3.30;1.50;;;;;;;20.53;50.05;100279.75;111187;1222;107007;-76
2021/09/01 14:47:34;;;;;;;3.30;1.70;;;;;;;20.28;48.55;100281.46;110993;1218;94995;-76
2021/09/01 14:51:26;;;;;;;1.90;1.20;;;;;;;20.16;48.32;100276.38;110929;1221;136656;-75
2021/09/01 14:54:32;;;;;;;;;;;;;;;;;;;;;
2021/09/01 15:03:09;;;;;;;3.90;2.60;;;;;;;19.98;49.18;100289.31;111278;1215;137139;-76
2021/09/01 15:06:21;;;;;;;;;;;;;;;;;;;;;
2021/09/01 15:14:38;;;;;;;;;;;;;;;;;;;;;
2021/09/01 15:27:23;;;;;;;2.80;1.30;;;;;;;19.63;49.21;100280.32;110676;1221;137256;-78
2021/09/01 15:31:04;;;;;;;;;;;;;;;;;;;;;
2021/09/01 15:39:03;;;;;;;2.10;1.30;;;;;;;19.27;50.05;100290.14;111394;1213;636152;-76
2021/09/01 15:43:14;;;;;;;1.90;1.30;;;;;;;19.14;50.13;100291.54;112526;1205;93865;-77
2021/09/01 15:47:23;;;;;;;4.30;2.50;;;;;;;19.03;50.49;100292.09;112216;1206;136091;-78
2021/09/01 15:51:33;;;;;;;2.80;1.60;;;;;;;18.93;50.68;100297.71;112261;1204;136694;-75
2021/09/01 15:56:00;;;;;;;1.70;1.40;;;;;;;18.84;50.70;100291.59;112318;1201;107378;-77
2021/09/01 15:59:35;;;;;;;;;;;;;;;;;;;;;
2021/09/01 16:07:27;;;;;;;;;;;;;;;;;;;;;
2021/09/01 16:11:44;;;;;;;2.90;1.50;;;;;;;18.51;51.60;100301.44;111808;1212;136587;-77
2021/09/01 16:15:00;;;;;;;2.20;1.40;;;;;;;18.44;51.75;100299.23;111467;1214;136990;-77
2021/09/01 16:19:45;;;;;;;6.40;1.80;;;;;;;18.34;52.10;100299.02;111681;1212;111060;-76
2021/09/01 16:23:56;;;;;;;2.30;1.50;;;;;;;18.23;52.56;100305.21;111830;1209;136569;-77
2021/09/01 16:28:33;;;;;;;3.70;1.90;;;;;;;18.11;52.79;100302.39;111710;1212;137141;-77
2021/09/01 16:32:13;;;;;;;5.40;1.90;;;;;;;17.99;53.04;100308.45;111691;1219;109801;-77
2021/09/01 16:36:25;;;;;;;5.50;1.90;;;;;;;17.88;53.45;100308.23;111563;1220;106479;-78
2021/09/01 16:40:25;;;;;;;;;;;;;;;;;;;;;
2021/09/01 16:44:02;;;;;;;2.80;2.10;;;;;;;17.69;54.18;100322.37;111053;1216;94883;-77
2021/09/01 16:48:35;;;;;;;3.10;1.90;;;;;;;17.61;54.57;100324.27;111037;1219;136693;-74
2021/09/01 16:52:16;;;;;;;2.30;2.00;;;;;;;17.51;54.98;100318.70;111457;1213;137335;-76
2021/09/01 16:56:37;;;;;;;;;;;;;;;;;;;;;
2021/09/01 17:04:48;;;;;;;;;;;;;;;;;;;;;
2021/09/01 17:21:07;;;;;;;3.00;2.10;;;;;;;16.67;57.31;100338.88;110310;1228;109570;-77
2021/09/01 17:29:18;;;;;;;3.30;2.40;;;;;;;16.47;57.71;100354.48;110163;1228;137202;-76
2021/09/01 17:32:41;;;;;;;;;;;;;;;;;;;;;
2021/09/01 17:37:00;;;;;;;5.80;2.50;;;;;;;16.30;58.38;100364.05;111209;1221;657703;-77
2021/09/01 17:40:58;;;;;;;3.90;2.50;;;;;;;16.22;58.57;100366.23;112248;1209;137745;-77
2021/09/01 17:49:14;;;;;;;4.10;2.50;;;;;;;16.10;59.04;100372.82;111953;1212;136149;-76
2021/09/01 17:53:22;;;;;;;6.20;3.20;;;;;;;16.03;59.12;100378.84;111815;1215;136823;-76
2021/09/01 18:02:18;;;;;;;4.50;3.40;;;;;;;15.85;59.23;100388.88;111229;1215;93980;-77
2021/09/01 18:06:03;;;;;;;6.60;2.90;;;;;;;15.77;59.42;100393.84;111026;1225;136826;-76
2021/09/01 18:10:24;;;;;;;7.50;6.60;;;;;;;15.75;59.56;100396.95;111039;1224;108380;-76
2021/09/01 18:14:30;;;;;;;7.80;5.70;;;;;;;15.73;59.60;100405.11;110688;1225;108597;-77
2021/09/01 18:22:41;;;;;;;8.70;3.10;;;;;;;15.61;60.04;100416.92;110243;1224;95188;-76
2021/09/01 18:26:47;;;;;;;4.80;2.80;;;;;;;15.54;60.09;100416.02;110333;1228;136722;-77
2021/09/01 18:30:51;;;;;;;6.20;3.20;;;;;;;15.48;60.62;100418.22;110054;1225;137501;-77
2021/09/01 18:34:57;;;;;;;6.70;4.00;;;;;;;15.44;60.80;100417.72;109714;1228;108086;-77
2021/09/01 18:42:53;;;;;;;6.10;4.00;;;;;;;15.36;60.47;100434.27;112078;1206;137253;-78
2021/09/01 18:47:01;;;;;;;5.90;4.00;;;;;;;15.30;60.40;100436.83;112281;1209;93882;-77
2021/09/01 18:51:10;;;;;;;7.40;3.90;;;;;;;15.25;60.40;100438.98;111917;1215;136155;-77
2021/09/01 18:54:43;;;;;;;;;;;;;;;;;;;;;
2021/09/01 18:59:17;;;;;;;6.10;3.80;;;;;;;15.19;60.45;100441.58;111559;1215;107149;-76
2021/09/01 19:03:23;;;;;;;9.80;6.50;;;;;;;15.15;60.54;100443.14;110903;1217;136658;-79
2021/09/01 19:23:22;;;;;;;5.00;3.20;;;;;;;14.90;61.45;100452.76;110130;1229;95078;-76
2021/09/01 19:31:12;;;;;;;5.40;3.20;;;;;;;14.80;61.93;100449.38;109882;1231;137367;-77
2021/09/01 19:35:17;;;;;;;6.90;3.80;;;;;;;14.76;62.20;100452.70;110269;1225;107929;-77
2021/09/01 19:39:23;;;;;;;6.40;4.10;;;;;;;14.71;62.40;100456.25;110278;1222;136929;-77
2021/09/01 19:51:33;;;;;;;5.70;4.30;;;;;;;14.51;63.31;100460.66;109848;1228;137153;-77
2021/09/01 19:55:12;;;;;;;;;;;;;;;;;;;;;
2021/09/01 20:03:49;;;;;;;6.40;3.50;;;;;;;14.47;63.99;100454.36;110386;1222;137145;-77
2021/09/01 20:07:20;;;;;;;;;;;;;;;;;;;;;
2021/09/01 20:24:09;;;;;;;5.00;3.80;;;;;;;14.47;64.80;100465.55;110067;1232;94911;-77
2021/09/01 20:31:57;;;;;;;5.80;4.40;;;;;;;14.49;65.02;100471.39;109911;1228;137122;-77
2021/09/01 20:53:12;;;;;;;7.10;4.50;;;;;;;14.62;65.38;100488.52;112186;1206;107115;-77
2021/09/01 20:57:20;;;;;;;7.10;4.00;;;;;;;14.66;65.37;100492.89;112109;1206;136952;-78
2021/09/01 21:01:29;;;;;;;11.30;4.90;;;;;;;14.65;65.40;100492.23;111987;1210;107426;-78
2021/09/01 21:05:38;;;;;;;9.20;4.20;;;;;;;14.60;65.32;100495.64;111988;1217;94275;-77
2021/09/01 21:09:47;;;;;;;6.10;3.20;;;;;;;14.56;65.49;100503.52;111642;1212;137110;-77
2021/09/01 21:18:29;;;;;;;7.20;4.20;;;;;;;14.58;65.72;100512.69;110345;1225;106283;-78
2021/09/01 21:26:09;;;;;;;;;;;;;;;;;;;;;
2021/09/01 21:38:57;;;;;;;7.00;4.20;;;;;;;14.25;65.04;100529.45;111499;1220;638140;-77
2021/09/01 21:43:06;;;;;;;6.80;4.40;;;;;;;14.12;64.87;100531.23;112290;1211;94209;-77
2021/09/01 21:51:39;;;;;;;;;;;;;;;;;;;;;
2021/09/01 22:04:37;;;;;;;7.80;5.30;;;;;;;13.72;64.93;100544.78;112378;1208;93898;-76
2021/09/01 22:08:13;;;;;;;10.70;5.30;;;;;;;13.63;64.91;100547.95;112907;1198;92871;-85
2021/09/01 22:11:00;;;;;;;9.30;5.00;;;;;;;13.58;64.95;100549.73;112067;1210;136839;-84
2021/09/01 22:13:52;;;;;;;8.80;5.10;;;;;;;13.51;65.09;100551.74;112164;1205;107372;-84
2021/09/01 22:16:39;;;;;;;6.80;4.30;;;;;;;13.47;65.11;100558.02;111987;1205;137594;-85
2021/09/01 22:19:26;;;;;;;10.40;4.40;;;;;;;13.43;65.13;100559.04;112300;1211;93931;-88
2021/09/01 22:22:16;;;;;;;7.70;5.00;;;;;;;13.38;65.22;100556.28;112177;1205;95255;-83
2021/09/01 22:25:06;;;;;;;8.90;4.70;;;;;;;13.34;65.35;100555.07;112133;1211;136337;-84
2021/09/01 22:27:54;;;;;;;6.70;4.10;;;;;;;13.27;65.34;100551.08;112246;1202;107076;-86
2021/09/01 22:30:44;;;;;;;6.80;4.00;;;;;;;13.23;65.37;100549.67;112221;1210;136648;-84
2021/09/01 22:33:34;;;;;;;9.00;4.80;;;;;;;13.19;65.46;100551.59;112369;1211;94940;-84
2021/09/01 22:36:21;;;;;;;9.80;4.70;;;;;;;13.16;65.55;100551.48;112212;1208;136584;-85
2021/09/01 22:39:08;;;;;;;7.20;4.10;;;;;;;13.15;65.56;100554.17;112258;1207;107742;-83
2021/09/01 22:41:55;;;;;;;7.60;4.70;;;;;;;13.12;65.85;100556.55;112269;1210;136783;-85
2021/09/01 22:44:43;;;;;;;7.30;4.10;;;;;;;13.09;65.91;100555.95;112256;1209;107617;-83
2021/09/01 22:47:31;;;;;;;9.40;4.20;;;;;;;13.03;65.91;100562.29;112199;1210;139227;-82
2021/09/01 22:50:21;;;;;;;6.80;4.50;;;;;;;13.00;66.11;100559.98;112289;1206;94832;-84
2021/09/01 22:53:08;;;;;;;6.90;4.70;;;;;;;12.97;66.15;100561.98;112162;1208;137459;-87
2021/09/01 22:55:55;;;;;;;7.90;4.60;;;;;;;12.97;66.34;100559.56;112371;1206;105110;-83
2021/09/01 22:58:51;;;;;;;6.60;4.30;;;;;;;12.93;66.35;100561.10;112242;1200;137240;-84
2021/09/01 23:01:43;;;;;;;6.90;4.30;;;;;;;12.88;66.61;100567.39;112327;1202;94931;-84
2021/09/01 23:04:30;;;;;;;;;;;;;;;12.84;66.68;100566.66;112383;1201;94957;-82
2021/09/01 23:07:18;;;;;;;6.70;4.00;;;;;;;12.81;66.78;100562.76;112299;1206;123491;-86
2021/09/01 23:10:07;;;;;;;;;;;;;;;12.79;67.01;100566.33;112531;1199;107262;-85
2021/09/01 23:12:58;;;;;;;8.80;4.80;;;;;;;12.75;67.10;100569.24;112339;1209;123453;-84
2021/09/01 23:15:47;;;;;;;8.60;4.70;;;;;;;12.73;67.29;100569.84;112451;1206;94924;-83
2021/09/01 23:18:41;;;;;;;6.10;4.30;;;;;;;12.71;67.44;100568.85;112267;1201;136922;-83
2021/09/01 23:21:28;;;;;;;6.20;4.30;;;;;;;12.70;67.42;100568.54;112421;1206;108278;-88
2021/09/01 23:24:16;;;;;;;7.80;4.60;;;;;;;12.70;67.55;100566.46;112291;1206;137532;-84
2021/09/01 23:27:06;;;;;;;9.20;5.00;;;;;;;12.70;67.66;100566.97;112414;1201;107359;-85
2021/09/01 23:29:55;;;;;;;11.00;4.90;;;;;;;12.70;67.74;100567.99;112266;1207;137059;-86
2021/09/01 23:32:48;;;;;;;8.50;4.60;;;;;;;12.73;67.93;100569.15;112404;1208;94931;-84
2021/09/01 23:35:47;;;;;;;11.20;4.80;;;;;;;12.74;67.92;100566.30;112341;1200;137885;-85
2021/09/01 23:38:43;;;;;;;9.70;4.50;;;;;;;12.72;67.85;100567.95;112485;1199;106032;-84
2021/09/01 23:41:30;;;;;;;7.90;4.80;;;;;;;12.72;68.02;100571.27;112319;1199;137511;-84
2021/09/01 23:44:17;;;;;;;9.00;4.90;;;;;;;12.76;68.14;100573.95;112534;1206;96035;-84
2021/09/01 23:47:13;;;;;;;8.30;4.50;;;;;;;12.77;68.17;100574.09;112412;1201;137643;-91
2021/09/01 23:50:00;;;;;;;9.70;5.40;;;;;;;12.75;68.24;100576.06;112464;1200;107114;-85
2021/09/01 23:52:47;;;;;;;7.50;4.40;;;;;;;12.74;68.33;100577.83;112343;1209;106791;-84
2021/09/01 23:55:34;;;;;;;7.30;4.30;;;;;;;12.73;68.25;100578.05;112316;1201;137570;-82
2021/09/01 23:58:23;;;;;;;7.50;4.60;;;;;;;12.71;68.28;100579.13;112540;1200;94881;-83
